createdAt,value
2023-01-25T00:00:31.076Z,13.10
2023-01-25T00:01:33.941Z,12.20
2023-01-25T00:02:37.032Z,13.73
2023-01-25T00:03:40.659Z,15.57
2023-01-25T00:04:43.616Z,16.02
2023-01-25T00:05:46.579Z,15.38
2023-01-25T00:06:50.223Z,12.80
2023-01-25T00:07:53.461Z,13.13
2023-01-25T00:08:56.377Z,11.77
2023-01-25T00:09:59.334Z,14.70
2023-01-25T00:11:02.418Z,12.57
2023-01-25T00:12:05.720Z,16.33
2023-01-25T00:13:08.759Z,13.55
2023-01-25T00:14:12.726Z,15.57
2023-01-25T00:15:15.816Z,13.75
2023-01-25T00:16:19.126Z,12.52
2023-01-25T00:17:22.196Z,13.30
2023-01-25T00:18:28.648Z,12.40
2023-01-25T00:19:31.800Z,18.00
2023-01-25T00:20:34.728Z,16.73
2023-01-25T00:21:38.096Z,16.20
2023-01-25T00:22:41.482Z,15.20
2023-01-25T00:23:44.767Z,16.15
2023-01-25T00:24:47.924Z,16.65
2023-01-25T00:25:58.653Z,18.87
2023-01-25T00:27:02.531Z,15.57
2023-01-25T00:28:05.511Z,19.95
2023-01-25T00:29:09.110Z,17.20
2023-01-25T00:30:12.883Z,21.85
2023-01-25T00:31:22.528Z,21.10
2023-01-25T00:32:38.130Z,20.33
2023-01-25T00:33:51.826Z,27.13
2023-01-25T00:34:54.655Z,20.08
2023-01-25T00:35:57.823Z,19.90
2023-01-25T00:37:24.023Z,20.33
2023-01-25T00:38:35.459Z,20.90
2023-01-25T00:39:39.504Z,20.20
2023-01-25T00:40:42.501Z,20.55
2023-01-25T00:41:45.554Z,19.33
2023-01-25T00:42:48.531Z,21.37
2023-01-25T00:43:51.395Z,23.30
2023-01-25T00:44:54.388Z,22.52
2023-01-25T00:46:03.320Z,22.13
2023-01-25T00:47:06.841Z,21.77
2023-01-25T00:48:09.903Z,22.17
2023-01-25T00:49:31.954Z,21.83
2023-01-25T00:51:39.793Z,20.12
2023-01-25T00:52:42.789Z,18.12
2023-01-25T00:53:45.943Z,20.85
2023-01-25T00:54:49.078Z,22.55
2023-01-25T00:55:55.202Z,21.55
2023-01-25T00:57:01.951Z,21.85
2023-01-25T00:58:05.074Z,21.12
2023-01-25T00:59:08.326Z,21.52
2023-01-25T01:00:13.944Z,22.33
2023-01-25T01:01:19.200Z,21.40
2023-01-25T01:02:22.368Z,25.92
2023-01-25T01:03:25.444Z,21.83
2023-01-25T01:04:28.545Z,23.23
2023-01-25T01:05:31.509Z,22.80
2023-01-25T01:06:41.930Z,25.58
2023-01-25T01:07:44.985Z,25.77
2023-01-25T01:08:48.541Z,18.95
2023-01-25T01:09:51.496Z,25.15
2023-01-25T01:11:00.634Z,20.17
2023-01-25T01:12:03.826Z,21.75
2023-01-25T01:13:06.972Z,24.87
2023-01-25T01:14:09.972Z,21.30
2023-01-25T01:15:13.118Z,24.30
2023-01-25T01:16:17.213Z,20.40
2023-01-25T01:17:20.535Z,22.90
2023-01-25T01:18:25.062Z,18.33
2023-01-25T01:19:27.977Z,22.55
2023-01-25T01:20:30.887Z,19.27
2023-01-25T01:21:33.977Z,16.17
2023-01-25T01:22:36.941Z,20.15
2023-01-25T01:23:41.087Z,19.92
2023-01-25T01:24:44.105Z,18.70
2023-01-25T01:25:47.623Z,15.85
2023-01-25T01:26:50.711Z,20.48
2023-01-25T01:27:53.624Z,20.65
2023-01-25T01:28:57.906Z,19.12
2023-01-25T01:30:01.424Z,17.42
2023-01-25T01:31:07.140Z,18.55
2023-01-25T01:32:10.163Z,21.17
2023-01-25T01:33:13.223Z,16.92
2023-01-25T01:34:16.346Z,17.60
2023-01-25T01:35:19.386Z,16.98
2023-01-25T01:36:26.459Z,17.77
2023-01-25T01:37:29.558Z,16.98
2023-01-25T01:38:33.330Z,15.45
2023-01-25T01:39:36.300Z,17.15
2023-01-25T01:40:45.471Z,12.57
2023-01-25T01:41:48.435Z,14.10
2023-01-25T01:43:06.981Z,14.65
2023-01-25T01:44:17.832Z,14.13
2023-01-25T01:45:46.035Z,13.38
2023-01-25T01:46:56.429Z,14.18
2023-01-25T01:47:59.567Z,14.85
2023-01-25T01:49:25.603Z,18.15
2023-01-25T01:50:29.158Z,12.18
2023-01-25T01:51:41.379Z,11.00
2023-01-25T01:52:44.552Z,15.85
2023-01-25T01:54:00.325Z,12.07
2023-01-25T01:55:15.143Z,11.05
2023-01-25T01:56:28.021Z,13.35
2023-01-25T01:57:53.935Z,13.02
2023-01-25T01:58:59.613Z,13.60
2023-01-25T02:00:19.562Z,16.17
2023-01-25T02:01:22.612Z,12.75
2023-01-25T02:02:27.201Z,12.70
2023-01-25T02:03:31.708Z,10.98
2023-01-25T02:04:34.767Z,10.95
2023-01-25T02:05:47.328Z,12.45
2023-01-25T02:07:11.700Z,10.68
2023-01-25T02:08:16.132Z,12.20
2023-01-25T02:09:24.198Z,14.63
2023-01-25T02:10:28.667Z,10.63
2023-01-25T02:11:34.317Z,12.60
2023-01-25T02:12:38.697Z,11.95
2023-01-25T02:13:41.869Z,9.88
2023-01-25T02:14:51.694Z,13.70
2023-01-25T02:15:57.101Z,12.20
2023-01-25T02:17:00.902Z,12.60
2023-01-25T02:18:04.153Z,14.52
2023-01-25T02:19:13.750Z,10.27
2023-01-25T02:20:26.990Z,11.38
2023-01-25T02:21:37.321Z,14.35
2023-01-25T02:22:47.385Z,13.50
2023-01-25T02:24:01.742Z,12.82
2023-01-25T02:25:12.696Z,12.50
2023-01-25T02:26:18.434Z,11.85
2023-01-25T02:27:22.148Z,10.65
2023-01-25T02:28:34.737Z,12.48
2023-01-25T02:29:38.962Z,10.27
2023-01-25T02:30:43.457Z,14.55
2023-01-25T02:31:49.865Z,11.12
2023-01-25T02:32:52.899Z,13.32
2023-01-25T02:33:55.916Z,14.95
2023-01-25T02:34:58.894Z,9.40
2023-01-25T02:36:07.567Z,12.37
2023-01-25T02:37:15.289Z,11.85
2023-01-25T02:38:21.466Z,12.32
2023-01-25T02:39:26.870Z,11.02
2023-01-25T02:40:36.941Z,11.55
2023-01-25T02:41:43.111Z,11.75
2023-01-25T02:42:46.777Z,11.32
2023-01-25T02:43:52.944Z,12.25
2023-01-25T02:44:55.853Z,11.68
2023-01-25T02:46:12.282Z,12.10
2023-01-25T02:47:18.939Z,12.43
2023-01-25T02:48:22.420Z,10.02
2023-01-25T02:49:25.859Z,10.07
2023-01-25T02:50:32.139Z,12.75
2023-01-25T02:51:38.288Z,14.57
2023-01-25T02:52:41.344Z,12.10
2023-01-25T02:53:44.331Z,13.55
2023-01-25T02:54:47.186Z,13.45
2023-01-25T02:55:50.119Z,12.48
2023-01-25T02:56:53.132Z,12.63
2023-01-25T02:57:56.106Z,11.43
2023-01-25T02:58:59.738Z,13.82
2023-01-25T03:00:04.130Z,11.32
2023-01-25T03:01:12.271Z,10.90
2023-01-25T03:02:15.304Z,9.45
2023-01-25T03:03:18.339Z,13.73
2023-01-25T03:04:21.309Z,12.35
2023-01-25T03:05:24.210Z,13.30
2023-01-25T03:06:27.354Z,13.05
2023-01-25T03:07:30.239Z,13.25
2023-01-25T03:08:35.643Z,14.50
2023-01-25T03:09:38.618Z,14.07
2023-01-25T03:10:41.714Z,11.23
2023-01-25T03:11:44.644Z,12.65
2023-01-25T03:12:47.602Z,13.02
2023-01-25T03:13:50.512Z,13.98
2023-01-25T03:14:53.792Z,15.57
2023-01-25T03:16:12.568Z,15.85
2023-01-25T03:17:15.646Z,17.92
2023-01-25T03:18:18.767Z,12.05
2023-01-25T03:19:22.588Z,13.95
2023-01-25T03:20:25.615Z,15.63
2023-01-25T03:21:28.635Z,15.07
2023-01-25T03:22:31.874Z,14.63
2023-01-25T03:23:35.349Z,16.95
2023-01-25T03:24:38.372Z,15.38
2023-01-25T03:25:41.517Z,16.58
2023-01-25T03:27:03.075Z,18.42
2023-01-25T03:28:06.201Z,17.08
2023-01-25T03:29:09.190Z,13.88
2023-01-25T03:30:12.737Z,19.33
2023-01-25T03:31:17.205Z,17.10
2023-01-25T03:32:20.367Z,20.70
2023-01-25T03:33:23.559Z,17.75
2023-01-25T03:34:26.620Z,15.05
2023-01-25T03:35:29.617Z,15.27
2023-01-25T03:36:32.609Z,16.65
2023-01-25T03:37:35.537Z,15.95
2023-01-25T03:38:39.020Z,19.55
2023-01-25T03:39:47.902Z,14.68
2023-01-25T03:40:54.098Z,15.68
2023-01-25T03:41:57.175Z,17.87
2023-01-25T03:43:00.020Z,15.05
2023-01-25T03:44:02.944Z,17.90
2023-01-25T03:45:06.585Z,15.38
2023-01-25T03:46:09.771Z,19.77
2023-01-25T03:47:12.799Z,15.23
2023-01-25T03:48:15.822Z,19.33
2023-01-25T03:49:18.942Z,15.07
2023-01-25T03:50:22.158Z,16.98
2023-01-25T03:51:25.344Z,16.83
2023-01-25T03:52:30.333Z,20.02
2023-01-25T03:53:33.317Z,17.90
2023-01-25T03:54:36.177Z,13.68
2023-01-25T03:55:39.030Z,19.52
2023-01-25T03:56:41.991Z,15.68
2023-01-25T03:57:45.065Z,15.27
2023-01-25T03:58:51.975Z,17.80
2023-01-25T03:59:55.399Z,16.17
2023-01-25T04:01:00.243Z,15.10
2023-01-25T04:02:03.255Z,15.43
2023-01-25T04:03:06.138Z,17.55
2023-01-25T04:04:09.024Z,19.05
2023-01-25T04:05:12.187Z,17.17
2023-01-25T04:06:20.873Z,17.50
2023-01-25T04:07:24.284Z,16.95
2023-01-25T04:08:31.951Z,15.10
2023-01-25T04:09:35.670Z,16.15
2023-01-25T04:10:38.696Z,17.98
2023-01-25T04:11:41.854Z,17.15
2023-01-25T04:12:44.695Z,19.50
2023-01-25T04:13:47.961Z,17.75
2023-01-25T04:14:52.096Z,15.73
2023-01-25T04:15:55.181Z,20.35
2023-01-25T04:16:58.970Z,16.75
2023-01-25T04:18:02.335Z,15.02
2023-01-25T04:19:08.043Z,16.40
2023-01-25T04:20:12.304Z,19.77
2023-01-25T04:21:17.027Z,18.08
2023-01-25T04:22:19.997Z,19.30
2023-01-25T04:23:24.212Z,18.30
2023-01-25T04:24:27.072Z,15.35
2023-01-25T04:25:30.055Z,15.10
2023-01-25T04:26:33.051Z,13.77
2023-01-25T04:27:36.053Z,19.30
2023-01-25T04:28:39.200Z,15.13
2023-01-25T04:29:42.263Z,17.17
2023-01-25T04:30:45.483Z,18.10
2023-01-25T04:31:48.793Z,15.18
2023-01-25T04:32:51.983Z,18.08
2023-01-25T04:33:56.109Z,16.12
2023-01-25T04:34:59.084Z,16.40
2023-01-25T04:36:02.463Z,16.17
2023-01-25T04:37:05.476Z,15.65
2023-01-25T04:38:11.083Z,16.17
2023-01-25T04:39:14.286Z,16.62
2023-01-25T04:40:17.463Z,18.98
2023-01-25T04:41:21.387Z,16.83
2023-01-25T04:42:24.260Z,15.52
2023-01-25T04:43:27.419Z,17.48
2023-01-25T04:44:30.430Z,16.73
2023-01-25T04:45:34.106Z,19.15
2023-01-25T04:46:37.013Z,17.73
2023-01-25T04:47:40.263Z,13.85
2023-01-25T04:48:43.310Z,15.20
2023-01-25T04:49:46.305Z,15.15
2023-01-25T04:50:49.405Z,14.57
2023-01-25T04:51:52.547Z,18.90
2023-01-25T04:52:55.655Z,13.07
2023-01-25T04:53:58.585Z,16.62
2023-01-25T04:55:01.523Z,16.00
2023-01-25T04:56:04.827Z,16.08
2023-01-25T04:57:07.738Z,16.98
2023-01-25T04:58:12.071Z,19.45
2023-01-25T04:59:15.995Z,17.25
2023-01-25T05:00:20.495Z,20.23
2023-01-25T05:01:23.669Z,17.60
2023-01-25T05:02:28.035Z,18.42
2023-01-25T05:03:31.220Z,15.50
2023-01-25T05:04:34.194Z,15.23
2023-01-25T05:05:37.239Z,18.65
2023-01-25T05:06:40.217Z,17.35
2023-01-25T05:07:43.571Z,16.70
2023-01-25T05:08:47.537Z,17.90
2023-01-25T05:09:50.626Z,17.58
2023-01-25T05:10:53.577Z,23.73
2023-01-25T05:11:56.437Z,19.60
2023-01-25T05:12:59.364Z,20.15
2023-01-25T05:14:02.437Z,20.17
2023-01-25T05:15:06.563Z,21.20
2023-01-25T05:16:09.909Z,17.95
2023-01-25T05:17:12.847Z,21.17
2023-01-25T05:18:16.117Z,19.12
2023-01-25T05:19:19.140Z,20.55
2023-01-25T05:20:22.076Z,25.20
2023-01-25T05:21:45.233Z,20.55
2023-01-25T05:22:48.293Z,20.62
2023-01-25T05:23:51.352Z,20.52
2023-01-25T05:24:54.711Z,23.45
2023-01-25T05:26:16.341Z,20.48
2023-01-25T05:27:20.836Z,22.35
2023-01-25T05:28:30.451Z,28.00
2023-01-25T05:29:38.743Z,19.92
2023-01-25T05:30:41.613Z,23.08
2023-01-25T05:31:44.733Z,22.02
2023-01-25T05:32:50.320Z,22.58
2023-01-25T05:33:53.280Z,19.77
2023-01-25T05:34:56.385Z,21.77
2023-01-25T05:35:59.505Z,20.62
2023-01-25T05:37:03.454Z,22.08
2023-01-25T05:38:06.750Z,24.02
2023-01-25T05:39:10.354Z,23.12
2023-01-25T05:40:13.664Z,20.55
2023-01-25T05:41:16.857Z,22.02
2023-01-25T05:42:20.015Z,23.15
2023-01-25T05:43:24.713Z,24.33
2023-01-25T05:44:28.605Z,23.12
2023-01-25T05:45:31.592Z,23.85
2023-01-25T05:46:34.455Z,22.10
2023-01-25T05:47:37.619Z,23.67
2023-01-25T05:48:43.401Z,22.60
2023-01-25T05:49:46.984Z,22.48
2023-01-25T05:50:49.896Z,17.05
2023-01-25T05:51:52.906Z,21.55
2023-01-25T05:52:55.788Z,21.95
2023-01-25T05:53:58.857Z,20.48
2023-01-25T05:55:01.713Z,18.08
2023-01-25T05:56:10.554Z,19.90
2023-01-25T05:57:14.837Z,20.30
2023-01-25T05:58:17.808Z,21.92
2023-01-25T05:59:20.809Z,20.30
2023-01-25T06:00:24.281Z,18.48
2023-01-25T06:01:28.210Z,22.48
2023-01-25T06:02:32.608Z,19.45
2023-01-25T06:03:35.822Z,16.67
2023-01-25T06:04:38.869Z,17.95
2023-01-25T06:05:42.037Z,18.42
2023-01-25T06:06:45.236Z,19.52
2023-01-25T06:07:48.271Z,19.83
2023-01-25T06:08:51.547Z,19.70
2023-01-25T06:09:58.145Z,16.52
2023-01-25T06:11:10.558Z,18.77
2023-01-25T06:12:13.472Z,18.25
2023-01-25T06:13:16.697Z,18.70
2023-01-25T06:14:19.597Z,16.83
2023-01-25T06:15:22.527Z,16.67
2023-01-25T06:16:25.446Z,18.42
2023-01-25T06:17:28.323Z,16.33
2023-01-25T06:18:33.201Z,14.32
2023-01-25T06:19:36.179Z,16.12
2023-01-25T06:20:39.959Z,18.62
2023-01-25T06:21:42.839Z,16.05
2023-01-25T06:22:50.815Z,17.48
2023-01-25T06:23:54.346Z,15.85
2023-01-25T06:24:57.346Z,15.93
2023-01-25T06:26:06.203Z,15.85
2023-01-25T06:27:09.126Z,17.67
2023-01-25T06:28:11.992Z,13.57
2023-01-25T06:29:14.888Z,17.45
2023-01-25T06:30:17.969Z,17.95
2023-01-25T06:31:21.343Z,16.80
2023-01-25T06:32:26.360Z,15.85
2023-01-25T06:33:29.205Z,15.75
2023-01-25T06:34:32.137Z,17.30
2023-01-25T06:35:35.187Z,19.10
2023-01-25T06:36:38.120Z,17.92
2023-01-25T06:37:41.160Z,16.08
2023-01-25T06:38:48.040Z,14.82
2023-01-25T06:39:51.280Z,18.15
2023-01-25T06:40:54.301Z,18.12
2023-01-25T06:41:57.139Z,18.80
2023-01-25T06:43:10.517Z,17.62
2023-01-25T06:44:13.310Z,18.23
2023-01-25T06:45:16.431Z,16.60
2023-01-25T06:46:20.658Z,17.85
2023-01-25T06:47:23.745Z,16.92
2023-01-25T06:48:27.143Z,14.05
2023-01-25T06:49:30.502Z,16.40
2023-01-25T06:50:33.451Z,17.73
2023-01-25T06:51:36.313Z,17.60
2023-01-25T06:52:39.348Z,20.23
2023-01-25T06:53:44.230Z,15.60
2023-01-25T06:54:47.124Z,20.62
2023-01-25T06:55:57.572Z,18.00
2023-01-25T06:57:00.711Z,19.17
2023-01-25T06:58:03.974Z,16.50
2023-01-25T06:59:09.345Z,19.48
2023-01-25T07:00:12.721Z,15.23
2023-01-25T07:01:21.676Z,16.83
2023-01-25T07:02:24.916Z,18.92
2023-01-25T07:03:29.000Z,22.55
2023-01-25T07:04:33.172Z,18.73
2023-01-25T07:05:36.237Z,18.30
2023-01-25T07:06:39.943Z,18.62
2023-01-25T07:07:47.397Z,17.80
2023-01-25T07:08:51.793Z,17.83
2023-01-25T07:09:54.862Z,18.65
2023-01-25T07:11:00.181Z,16.20
2023-01-25T07:12:04.963Z,16.30
2023-01-25T07:13:07.822Z,18.73
2023-01-25T07:14:10.708Z,15.38
2023-01-25T07:15:13.659Z,14.73
2023-01-25T07:16:19.946Z,18.55
2023-01-25T07:17:23.143Z,18.73
2023-01-25T07:18:28.920Z,15.60
2023-01-25T07:19:32.162Z,15.90
2023-01-25T07:20:35.134Z,15.48
2023-01-25T07:21:38.281Z,17.52
2023-01-25T07:22:41.301Z,20.35
2023-01-25T07:23:45.166Z,16.58
2023-01-25T07:24:51.082Z,17.00
2023-01-25T07:25:54.219Z,17.08
2023-01-25T07:26:57.512Z,15.02
2023-01-25T07:28:00.525Z,15.57
2023-01-25T07:29:03.810Z,16.27
2023-01-25T07:30:07.218Z,16.02
2023-01-25T07:31:12.363Z,21.35
2023-01-25T07:32:15.276Z,16.00
2023-01-25T07:33:18.506Z,18.30
2023-01-25T07:34:21.558Z,14.45
2023-01-25T07:35:24.499Z,16.23
2023-01-25T07:36:27.591Z,16.73
2023-01-25T07:37:30.478Z,18.42
2023-01-25T07:38:34.020Z,17.40
2023-01-25T07:39:37.132Z,15.38
2023-01-25T07:40:40.192Z,19.83
2023-01-25T07:41:43.144Z,17.67
2023-01-25T07:42:46.263Z,18.52
2023-01-25T07:43:49.342Z,16.25
2023-01-25T07:44:52.181Z,15.75
2023-01-25T07:46:00.404Z,16.77
2023-01-25T07:47:03.416Z,16.45
2023-01-25T07:48:12.230Z,14.07
2023-01-25T07:49:16.084Z,14.73
2023-01-25T07:50:19.031Z,16.40
2023-01-25T07:51:23.361Z,14.32
2023-01-25T07:52:26.821Z,14.27
2023-01-25T07:53:29.634Z,13.23
2023-01-25T07:54:32.576Z,15.27
2023-01-25T07:55:35.890Z,15.50
2023-01-25T07:56:41.024Z,16.67
2023-01-25T07:57:44.024Z,14.98
2023-01-25T07:58:49.381Z,13.15
2023-01-25T07:59:52.218Z,12.52
2023-01-25T08:00:55.320Z,14.32
2023-01-25T08:01:58.293Z,14.13
2023-01-25T08:03:01.453Z,15.93
2023-01-25T08:04:05.161Z,12.60
2023-01-25T08:05:08.769Z,13.73
2023-01-25T08:06:12.773Z,12.85
2023-01-25T08:07:15.724Z,17.27
2023-01-25T08:08:18.930Z,14.13
2023-01-25T08:09:21.994Z,16.73
2023-01-25T08:10:24.964Z,17.73
2023-01-25T08:11:30.968Z,12.40
2023-01-25T08:12:34.679Z,18.42
2023-01-25T08:13:38.111Z,17.27
2023-01-25T08:14:42.237Z,13.23
2023-01-25T08:15:45.192Z,13.57
2023-01-25T08:16:48.380Z,14.13
2023-01-25T08:17:51.515Z,11.85
2023-01-25T08:18:59.169Z,11.82
2023-01-25T08:20:02.260Z,13.10
2023-01-25T08:21:05.620Z,12.90
2023-01-25T08:22:09.313Z,14.52
2023-01-25T08:23:12.382Z,13.70
2023-01-25T08:24:20.666Z,14.13
2023-01-25T08:25:23.559Z,13.38
2023-01-25T08:26:27.531Z,13.98
2023-01-25T08:27:30.458Z,13.77
2023-01-25T08:28:34.376Z,14.20
2023-01-25T08:29:37.453Z,12.20
2023-01-25T08:30:52.040Z,14.70
2023-01-25T08:31:59.579Z,10.98
2023-01-25T08:33:02.744Z,13.20
2023-01-25T08:34:06.994Z,14.32
2023-01-25T08:35:10.393Z,14.65
2023-01-25T08:36:15.364Z,13.55
2023-01-25T08:37:18.415Z,12.88
2023-01-25T08:38:21.443Z,12.43
2023-01-25T08:39:24.619Z,12.45
2023-01-25T08:40:27.574Z,13.20
2023-01-25T08:41:31.976Z,10.52
2023-01-25T08:42:37.919Z,14.10
2023-01-25T08:43:40.852Z,13.13
2023-01-25T08:44:43.882Z,12.40
2023-01-25T08:45:46.759Z,12.48
2023-01-25T08:46:50.241Z,12.60
2023-01-25T08:47:53.187Z,13.27
2023-01-25T08:49:00.003Z,14.02
2023-01-25T08:50:03.221Z,11.57
2023-01-25T08:51:13.200Z,14.23
2023-01-25T08:52:16.351Z,12.05
2023-01-25T08:53:20.023Z,11.15
2023-01-25T08:54:24.842Z,16.05
2023-01-25T08:55:27.794Z,13.90
2023-01-25T08:56:30.708Z,13.95
2023-01-25T08:57:33.784Z,13.57
2023-01-25T08:58:44.679Z,13.90
2023-01-25T08:59:48.072Z,12.10
2023-01-25T09:00:51.086Z,14.52
2023-01-25T09:01:54.141Z,15.02
2023-01-25T09:02:56.930Z,12.95
2023-01-25T09:03:59.829Z,13.93
2023-01-25T09:05:02.821Z,15.80
2023-01-25T09:06:06.546Z,14.27
2023-01-25T09:07:09.288Z,12.65
2023-01-25T09:08:14.033Z,20.27
2023-01-25T09:09:17.864Z,14.38
2023-01-25T09:10:20.895Z,14.32
2023-01-25T09:11:24.674Z,15.85
2023-01-25T09:12:27.733Z,16.30
2023-01-25T09:13:31.287Z,17.10
2023-01-25T09:14:34.151Z,16.42
2023-01-25T09:15:37.006Z,14.10
2023-01-25T09:16:39.911Z,16.35
2023-01-25T09:17:42.873Z,16.77
2023-01-25T09:18:46.174Z,18.00
2023-01-25T09:20:57.342Z,15.07
2023-01-25T09:22:00.509Z,21.77
2023-01-25T09:23:03.360Z,18.35
2023-01-25T09:24:07.921Z,20.77
2023-01-25T09:25:15.164Z,17.73
2023-01-25T09:26:19.196Z,20.80
2023-01-25T09:27:22.161Z,15.38
2023-01-25T09:28:27.948Z,18.23
2023-01-25T09:29:31.641Z,17.30
2023-01-25T09:30:46.215Z,18.30
2023-01-25T09:31:51.930Z,20.92
2023-01-25T09:32:54.847Z,18.83
2023-01-25T09:33:58.656Z,21.00
2023-01-25T09:35:01.463Z,17.10
2023-01-25T09:36:05.289Z,20.33
2023-01-25T09:37:08.420Z,21.10
2023-01-25T09:38:11.589Z,20.55
2023-01-25T09:39:20.959Z,19.10
2023-01-25T09:40:28.941Z,19.42
2023-01-25T09:41:37.860Z,22.83
2023-01-25T09:43:03.762Z,19.02
2023-01-25T09:44:24.422Z,18.73
2023-01-25T09:45:36.731Z,19.52
2023-01-25T09:46:45.720Z,20.35
2023-01-25T09:48:18.725Z,16.30
2023-01-25T09:49:36.671Z,20.00
2023-01-25T09:50:45.641Z,20.20
2023-01-25T09:52:08.761Z,18.48
2023-01-25T09:53:17.498Z,20.67
2023-01-25T09:54:21.120Z,20.27
2023-01-25T09:55:28.458Z,19.45
2023-01-25T09:56:35.965Z,20.85
2023-01-25T09:57:42.284Z,19.95
2023-01-25T09:58:49.215Z,19.48
2023-01-25T09:59:54.790Z,20.88
2023-01-25T10:01:37.464Z,22.58
2023-01-25T10:02:53.417Z,24.10
2023-01-25T10:04:07.468Z,21.90
2023-01-25T10:05:21.165Z,23.90
2023-01-25T10:06:36.372Z,24.67
2023-01-25T10:07:49.003Z,26.37
2023-01-25T10:09:08.952Z,23.08
2023-01-25T10:10:18.984Z,19.85
2023-01-25T10:11:34.729Z,24.95
2023-01-25T10:12:39.430Z,20.62
2023-01-25T10:13:43.795Z,21.45
2023-01-25T10:14:47.937Z,20.70
2023-01-25T10:15:56.395Z,18.25
2023-01-25T10:17:08.417Z,19.58
2023-01-25T10:18:18.982Z,22.65
2023-01-25T10:19:39.305Z,22.48
2023-01-25T10:21:24.263Z,20.62
2023-01-25T10:22:45.223Z,23.23
2023-01-25T10:24:12.539Z,23.67
2023-01-25T10:25:28.519Z,26.20
2023-01-25T10:26:36.212Z,21.60
2023-01-25T10:28:01.807Z,22.25
2023-01-25T10:29:13.634Z,20.35
2023-01-25T10:31:44.731Z,19.27
2023-01-25T10:32:55.960Z,20.45
2023-01-25T10:34:02.373Z,20.42
2023-01-25T10:35:34.785Z,24.65
2023-01-25T10:36:42.542Z,19.67
2023-01-25T10:37:46.345Z,25.02
2023-01-25T10:38:59.615Z,21.00
2023-01-25T10:40:18.822Z,19.85
2023-01-25T10:41:43.479Z,26.25
2023-01-25T10:42:51.766Z,22.30
2023-01-25T10:44:14.013Z,25.23
2023-01-25T10:45:17.906Z,25.00
2023-01-25T10:46:26.277Z,28.00
2023-01-25T10:47:34.482Z,25.20
2023-01-25T10:48:39.735Z,25.67
2023-01-25T10:49:48.217Z,26.65
2023-01-25T10:50:57.689Z,22.37
2023-01-25T10:52:24.873Z,23.45
2023-01-25T10:53:45.141Z,24.10
2023-01-25T10:54:52.877Z,21.90
2023-01-25T10:56:00.780Z,21.25
2023-01-25T10:57:08.047Z,22.60
2023-01-25T10:58:34.961Z,20.33
2023-01-25T10:59:38.455Z,23.85
2023-01-25T11:00:41.873Z,20.62
2023-01-25T11:01:45.587Z,19.27
2023-01-25T11:02:48.921Z,25.02
2023-01-25T11:03:52.285Z,23.60
2023-01-25T11:04:55.296Z,23.35
2023-01-25T11:05:59.625Z,23.02
2023-01-25T11:07:06.301Z,22.92
2023-01-25T11:08:25.080Z,24.70
2023-01-25T11:09:32.769Z,20.85
2023-01-25T11:10:38.213Z,23.00
2023-01-25T11:11:41.670Z,25.48
2023-01-25T11:12:44.801Z,25.50
2023-01-25T11:13:47.935Z,21.77
2023-01-25T11:14:50.972Z,24.30
2023-01-25T11:16:02.033Z,23.27
2023-01-25T11:17:06.565Z,23.73
2023-01-25T11:18:28.830Z,25.42
2023-01-25T11:19:33.742Z,21.10
2023-01-25T11:20:36.765Z,23.77
2023-01-25T11:21:53.401Z,22.77
2023-01-25T11:22:57.730Z,22.02
2023-01-25T11:24:06.032Z,22.62
2023-01-25T11:25:32.151Z,18.12
2023-01-25T11:26:39.989Z,22.65
2023-01-25T11:27:43.030Z,22.87
2023-01-25T11:28:51.227Z,23.45
2023-01-25T11:30:07.474Z,26.92
2023-01-25T11:31:14.927Z,23.83
2023-01-25T11:32:21.977Z,21.98
2023-01-25T11:33:26.967Z,21.80
2023-01-25T11:34:30.615Z,26.30
2023-01-25T11:35:36.405Z,21.83
2023-01-25T11:37:08.379Z,20.85
2023-01-25T11:38:14.421Z,21.17
2023-01-25T11:39:36.268Z,23.83
2023-01-25T11:40:58.065Z,23.48
2023-01-25T11:42:13.874Z,23.40
2023-01-25T11:43:38.620Z,21.37
2023-01-25T11:44:47.213Z,21.90
2023-01-25T11:46:05.448Z,24.67
2023-01-25T11:47:20.039Z,18.90
2023-01-25T11:48:46.795Z,19.42
2023-01-25T11:50:08.761Z,22.95
2023-01-25T11:51:33.713Z,21.45
2023-01-25T11:53:03.613Z,19.75
2023-01-25T11:54:25.185Z,22.50
2023-01-25T11:56:07.212Z,20.52
2023-01-25T11:57:37.067Z,21.80
2023-01-25T11:58:57.783Z,20.67
2023-01-25T12:00:19.329Z,21.33
2023-01-25T12:01:43.048Z,25.80
2023-01-25T12:02:51.513Z,21.35
2023-01-25T12:04:25.060Z,20.60
2023-01-25T12:05:49.187Z,18.77
2023-01-25T12:07:00.568Z,16.62
2023-01-25T12:08:19.023Z,21.08
2023-01-25T12:09:30.647Z,20.80
2023-01-25T12:10:43.910Z,24.48
2023-01-25T12:11:56.153Z,21.25
2023-01-25T12:13:31.411Z,22.55
2023-01-25T12:15:22.890Z,20.52
2023-01-25T12:16:31.996Z,20.50
2023-01-25T12:17:34.855Z,24.25
2023-01-25T12:18:43.769Z,22.37
2023-01-25T12:20:26.527Z,19.23
2023-01-25T12:22:59.389Z,19.03
2023-01-25T12:24:11.590Z,19.80
2023-01-25T12:25:24.390Z,22.87
2023-01-25T12:26:56.428Z,22.75
2023-01-25T12:28:15.526Z,19.83
2023-01-25T12:29:37.417Z,20.70
2023-01-25T12:32:31.905Z,21.05
2023-01-25T12:33:48.100Z,24.70
2023-01-25T12:35:16.448Z,23.25
2023-01-25T12:36:29.867Z,25.02
2023-01-25T12:37:40.337Z,25.40
2023-01-25T12:39:02.944Z,18.60
2023-01-25T12:40:15.812Z,23.17
2023-01-25T12:41:54.463Z,22.02
2023-01-25T12:43:01.861Z,19.67
2023-01-25T12:44:29.917Z,20.77
2023-01-25T12:45:38.172Z,24.55
2023-01-25T12:46:46.545Z,22.42
2023-01-25T12:48:14.553Z,22.95
2023-01-25T12:50:15.134Z,22.23
2023-01-25T12:51:20.631Z,22.48
2023-01-25T12:52:43.182Z,20.88
2023-01-25T12:53:52.480Z,24.87
2023-01-25T12:55:00.730Z,21.45
2023-01-25T12:56:07.872Z,23.42
2023-01-25T12:57:48.002Z,26.55
2023-01-25T12:58:57.000Z,25.73
2023-01-25T13:00:17.354Z,26.87
2023-01-25T13:01:24.859Z,25.02
2023-01-25T13:03:02.625Z,23.75
2023-01-25T13:04:14.653Z,25.08
2023-01-25T13:05:24.008Z,24.95
2023-01-25T13:06:49.448Z,25.35
2023-01-25T13:08:04.275Z,27.35
2023-01-25T13:09:19.116Z,28.02
2023-01-25T13:10:30.775Z,27.62
2023-01-25T13:11:43.030Z,25.83
2023-01-25T13:12:59.020Z,26.40
2023-01-25T13:14:18.261Z,28.60
2023-01-25T13:15:35.412Z,22.27
2023-01-25T13:16:43.503Z,25.95
2023-01-25T13:17:47.726Z,25.58
2023-01-25T13:18:50.989Z,26.30
2023-01-25T13:19:54.636Z,26.92
2023-01-25T13:20:59.683Z,26.15
2023-01-25T13:22:02.995Z,27.45
2023-01-25T13:23:25.813Z,25.30
2023-01-25T13:24:31.228Z,20.80
2023-01-25T13:25:34.139Z,24.87
2023-01-25T13:26:38.772Z,24.30
2023-01-25T13:27:41.810Z,23.70
2023-01-25T13:28:46.970Z,24.37
2023-01-25T13:30:01.078Z,25.62
2023-01-25T13:31:04.108Z,27.25
2023-01-25T13:32:36.496Z,25.80
2023-01-25T13:33:39.608Z,21.37
2023-01-25T13:34:42.884Z,25.25
2023-01-25T13:35:46.077Z,24.73
2023-01-25T13:36:54.358Z,24.02
2023-01-25T13:38:02.737Z,24.33
2023-01-25T13:39:30.007Z,25.02
2023-01-25T13:40:38.673Z,23.67
2023-01-25T13:42:03.945Z,27.27
2023-01-25T13:43:19.736Z,21.48
2023-01-25T13:44:28.796Z,29.00
2023-01-25T13:45:36.403Z,28.65
2023-01-25T13:46:39.740Z,23.95
2023-01-25T13:47:45.804Z,26.25
2023-01-25T13:49:04.969Z,29.25
2023-01-25T13:50:27.151Z,25.55
2023-01-25T13:51:34.722Z,27.13
2023-01-25T13:52:37.769Z,21.65
2023-01-25T13:53:41.194Z,23.12
2023-01-25T13:54:49.169Z,24.92
2023-01-25T13:55:57.769Z,22.65
2023-01-25T13:57:14.278Z,24.83
2023-01-25T13:58:29.798Z,26.87
2023-01-25T13:59:32.723Z,23.98
2023-01-25T14:00:36.398Z,23.95
2023-01-25T14:01:40.445Z,23.23
2023-01-25T14:02:47.206Z,22.42
2023-01-25T14:03:53.468Z,27.52
2023-01-25T14:04:57.242Z,25.10
2023-01-25T14:06:03.149Z,22.00
2023-01-25T14:07:10.245Z,20.52
2023-01-25T14:08:13.596Z,18.05
2023-01-25T14:09:22.871Z,19.83
2023-01-25T14:10:28.103Z,20.20
2023-01-25T14:11:35.065Z,19.80
2023-01-25T14:12:46.100Z,20.08
2023-01-25T14:14:11.894Z,20.65
2023-01-25T14:15:29.864Z,19.90
2023-01-25T14:16:33.139Z,26.45
2023-01-25T14:17:36.259Z,23.02
2023-01-25T14:18:43.415Z,24.48
2023-01-25T14:19:56.401Z,23.45
2023-01-25T14:21:17.909Z,23.12
2023-01-25T14:22:22.382Z,19.65
2023-01-25T14:23:29.536Z,24.40
2023-01-25T14:24:32.531Z,22.10
2023-01-25T14:25:35.394Z,24.12
2023-01-25T14:26:42.187Z,24.35
2023-01-25T14:27:51.145Z,21.40
2023-01-25T14:29:01.640Z,21.87
2023-01-25T14:30:06.331Z,20.90
2023-01-25T14:31:35.868Z,24.37
2023-01-25T14:32:41.969Z,23.98
2023-01-25T14:33:48.092Z,19.55